createdAt,value
2023-01-23T00:02:15.956Z,39.42
2023-01-23T00:04:43.116Z,39.63
2023-01-23T00:07:11.455Z,40.70
2023-01-23T00:12:19.345Z,40.47
2023-01-23T00:17:27.549Z,41.00
2023-01-23T00:22:36.867Z,39.83
2023-01-23T00:28:15.511Z,41.67
2023-01-23T00:30:42.573Z,42.50
2023-01-23T00:33:12.634Z,42.13
2023-01-23T00:35:39.700Z,45.03
2023-01-23T00:38:10.103Z,43.08
2023-01-23T00:43:21.316Z,43.60
2023-01-23T00:45:48.534Z,44.03
2023-01-23T00:48:16.086Z,42.10
2023-01-23T00:53:24.238Z,50.10
2023-01-23T00:55:59.155Z,49.28
2023-01-23T00:58:26.221Z,48.77
2023-01-23T01:01:05.225Z,49.65
2023-01-23T01:03:32.298Z,49.33
2023-01-23T01:06:01.253Z,49.50
2023-01-23T01:08:31.053Z,47.25
2023-01-23T01:10:58.357Z,49.83
2023-01-23T01:13:31.382Z,48.15
2023-01-23T01:16:17.067Z,44.00
2023-01-23T01:19:00.001Z,45.67
2023-01-23T01:21:30.497Z,44.70
2023-01-23T01:23:58.853Z,35.28
2023-01-23T01:26:38.554Z,33.60
2023-01-23T01:29:05.935Z,34.33
2023-01-23T01:31:39.171Z,34.13
2023-01-23T01:34:09.002Z,37.15
2023-01-23T01:39:26.238Z,38.10
2023-01-23T01:41:53.591Z,37.63
2023-01-23T01:44:25.003Z,35.65
2023-01-23T01:46:52.419Z,39.45
2023-01-23T01:49:36.147Z,36.03
2023-01-23T01:52:10.292Z,37.78
2023-01-23T01:54:44.597Z,39.90
2023-01-23T01:57:48.947Z,36.85
2023-01-23T02:00:36.937Z,36.80
2023-01-23T02:03:04.292Z,38.33
2023-01-23T02:05:46.142Z,34.28
2023-01-23T02:08:16.476Z,33.58
2023-01-23T02:10:44.376Z,28.93
2023-01-23T02:13:36.236Z,30.35
2023-01-23T02:16:15.352Z,28.15
2023-01-23T02:18:52.121Z,30.07
2023-01-23T02:21:25.174Z,30.27
2023-01-23T02:24:21.817Z,25.70
2023-01-23T02:26:49.596Z,29.65
2023-01-23T02:29:19.307Z,27.17
2023-01-23T02:31:51.916Z,29.63
2023-01-23T02:34:18.929Z,29.17
2023-01-23T05:29:31.805Z,33.55
2023-01-23T05:32:11.859Z,34.57
2023-01-23T05:34:38.981Z,33.80
2023-01-23T05:37:05.994Z,33.30
2023-01-23T05:39:33.427Z,36.03
2023-01-23T05:42:01.767Z,36.23
2023-01-23T05:44:28.865Z,39.07
2023-01-23T05:46:55.742Z,35.47
2023-01-23T05:49:22.720Z,36.13
2023-01-23T05:51:49.563Z,32.97
2023-01-23T05:54:16.427Z,38.20
2023-01-23T05:56:43.244Z,32.00
2023-01-23T05:59:10.659Z,31.83
2023-01-23T06:01:37.434Z,36.57
2023-01-23T06:04:04.425Z,35.30
2023-01-23T06:06:31.217Z,34.13
2023-01-23T06:09:00.087Z,38.13
2023-01-23T06:11:26.957Z,33.90
2023-01-23T06:13:53.837Z,35.08
2023-01-23T06:16:20.735Z,33.28
2023-01-23T06:18:47.610Z,34.38
2023-01-23T06:21:15.310Z,32.60
2023-01-23T06:23:42.559Z,31.95
2023-01-23T06:26:09.447Z,30.88
2023-01-23T06:28:36.429Z,28.48
2023-01-23T06:31:04.569Z,30.95
2023-01-23T06:33:31.630Z,28.80
2023-01-23T06:36:03.475Z,29.25
2023-01-23T06:38:30.991Z,31.70
2023-01-23T06:40:58.002Z,30.45
2023-01-23T06:43:25.389Z,29.30
2023-01-23T06:45:52.448Z,27.48
2023-01-23T06:48:19.378Z,29.27
2023-01-23T06:50:46.201Z,28.02
2023-01-23T06:53:14.967Z,26.92
2023-01-23T06:55:41.918Z,28.40
2023-01-23T06:58:09.215Z,29.52
2023-01-23T07:00:36.005Z,24.90
2023-01-23T07:03:06.035Z,24.08
2023-01-23T07:05:37.216Z,24.63
2023-01-23T07:08:05.089Z,26.17
2023-01-23T07:10:32.445Z,25.27
2023-01-23T07:12:59.254Z,24.77
2023-01-23T07:15:26.174Z,26.42
2023-01-23T07:17:53.550Z,26.33
2023-01-23T07:20:20.825Z,26.30
2023-01-23T07:22:48.113Z,26.92
2023-01-23T07:25:15.013Z,26.85
2023-01-23T07:27:41.824Z,25.80
2023-01-23T07:30:10.564Z,27.65
2023-01-23T07:32:37.695Z,28.63
2023-01-23T07:35:05.155Z,28.10
2023-01-23T07:37:31.995Z,26.95
2023-01-23T07:39:58.867Z,27.88
2023-01-23T07:42:25.701Z,29.50
2023-01-23T07:44:52.629Z,29.05
2023-01-23T07:47:19.541Z,30.15
2023-01-23T07:49:46.332Z,29.75
2023-01-23T07:52:13.164Z,29.95
2023-01-23T07:54:40.008Z,28.60
2023-01-23T07:57:07.183Z,29.08
2023-01-23T07:59:33.953Z,29.30
2023-01-23T08:02:00.793Z,32.03
2023-01-23T08:04:28.012Z,29.37
2023-01-23T08:06:54.875Z,30.85
2023-01-23T08:09:22.293Z,32.83
2023-01-23T08:11:52.650Z,29.35
2023-01-23T08:14:19.828Z,30.33
2023-01-23T08:16:51.321Z,29.80
2023-01-23T08:19:19.332Z,28.08
2023-01-23T08:21:47.130Z,30.97
2023-01-23T08:24:14.619Z,30.30
2023-01-23T08:26:42.588Z,30.63
2023-01-23T08:29:10.979Z,30.92
2023-01-23T08:31:38.901Z,30.67
2023-01-23T08:34:06.243Z,29.50
2023-01-23T08:36:33.160Z,28.77
2023-01-23T08:39:00.313Z,30.02
2023-01-23T08:41:27.214Z,30.30
2023-01-23T08:43:54.422Z,28.40
2023-01-23T08:46:21.335Z,27.25
2023-01-23T08:48:48.211Z,25.77
2023-01-23T08:51:15.247Z,25.98
2023-01-23T08:53:42.320Z,27.27
2023-01-23T08:56:16.811Z,25.77
2023-01-23T08:58:44.782Z,25.02
2023-01-23T09:01:17.057Z,25.60
2023-01-23T09:03:44.069Z,27.15
2023-01-23T09:06:12.545Z,26.05
2023-01-23T09:08:39.409Z,25.15
2023-01-23T09:11:08.723Z,26.98
2023-01-23T09:13:36.001Z,26.45
2023-01-23T09:16:04.000Z,25.25
2023-01-23T09:18:31.755Z,24.98
2023-01-23T09:20:58.627Z,24.45
2023-01-23T09:23:25.584Z,24.73
2023-01-23T09:25:52.471Z,23.73
2023-01-23T09:28:19.314Z,24.05
2023-01-23T09:30:46.112Z,24.27
2023-01-23T09:33:13.176Z,23.57
2023-01-23T09:35:40.038Z,23.30
2023-01-23T09:38:07.723Z,23.23
2023-01-23T09:40:46.266Z,25.33
2023-01-23T09:43:18.424Z,23.67
2023-01-23T09:46:05.504Z,24.70
2023-01-23T09:48:40.918Z,22.67
2023-01-23T09:51:32.513Z,21.83
2023-01-23T09:54:05.531Z,21.77
2023-01-23T09:56:38.298Z,23.45
2023-01-23T09:59:08.188Z,22.50
2023-01-23T10:01:35.058Z,21.88
2023-01-23T10:04:02.859Z,22.17
2023-01-23T10:06:48.876Z,21.60
2023-01-23T10:09:51.094Z,21.17
2023-01-23T10:12:33.141Z,20.92
2023-01-23T10:15:24.179Z,21.67
2023-01-23T10:18:21.470Z,21.70
2023-01-23T10:20:51.439Z,20.95
2023-01-23T10:23:21.358Z,21.55
2023-01-23T10:25:48.685Z,21.17
2023-01-23T10:28:40.277Z,21.67
2023-01-23T10:31:38.558Z,21.58
2023-01-23T10:34:11.436Z,20.50
2023-01-23T10:36:55.085Z,23.25
2023-01-23T10:39:29.555Z,22.00
2023-01-23T10:42:02.123Z,21.40
2023-01-23T10:44:29.702Z,23.65
2023-01-23T10:47:02.050Z,21.92
2023-01-23T10:49:29.493Z,21.48
2023-01-23T10:51:56.613Z,19.83
2023-01-23T10:54:33.859Z,20.88
2023-01-23T10:57:02.321Z,20.40
2023-01-23T10:59:39.675Z,20.75
2023-01-23T11:02:16.240Z,20.35
2023-01-23T11:04:46.834Z,19.58
2023-01-23T11:07:17.764Z,18.70
2023-01-23T11:09:48.795Z,18.75
2023-01-23T11:12:19.086Z,21.40
2023-01-23T11:14:46.392Z,20.70
2023-01-23T11:17:33.513Z,21.45
2023-01-23T11:20:29.604Z,21.60
2023-01-23T11:23:05.493Z,24.77
2023-01-23T11:25:39.542Z,18.13
2023-01-23T11:28:36.792Z,19.20
2023-01-23T11:31:15.745Z,20.70
2023-01-23T11:33:59.408Z,21.13
2023-01-23T11:36:54.777Z,17.97
2023-01-23T11:39:39.723Z,21.07
2023-01-23T11:42:12.726Z,22.43
2023-01-23T11:55:35.728Z,19.47
2023-01-23T11:58:39.648Z,18.83
2023-01-23T12:01:30.619Z,20.23
2023-01-23T12:03:57.515Z,20.10
2023-01-23T12:06:32.653Z,23.47
2023-01-23T12:09:09.610Z,22.87
2023-01-23T12:11:50.470Z,24.33
2023-01-23T12:14:41.975Z,21.97
2023-01-23T12:17:27.069Z,23.47
2023-01-23T12:20:05.632Z,23.43
2023-01-23T12:23:17.577Z,25.67
2023-01-23T12:25:54.535Z,25.80
2023-01-23T12:28:27.090Z,23.77
2023-01-23T12:31:31.530Z,23.03
2023-01-23T12:34:19.416Z,23.70
2023-01-23T12:37:30.869Z,24.37
2023-01-23T12:40:22.757Z,24.50
2023-01-23T12:42:59.646Z,24.63
2023-01-23T12:45:29.526Z,25.23
2023-01-23T12:48:22.019Z,26.37
2023-01-23T12:50:56.494Z,24.47
2023-01-23T12:53:23.821Z,24.03
2023-01-23T12:56:11.124Z,24.07
2023-01-23T12:58:42.629Z,24.07
2023-01-23T13:01:22.674Z,23.57
2023-01-23T13:04:17.632Z,27.07
2023-01-23T13:07:02.041Z,23.03
2023-01-23T13:10:06.243Z,23.40
2023-01-23T13:12:33.909Z,22.00
2023-01-23T13:15:38.787Z,21.53
2023-01-23T13:18:08.832Z,22.23
2023-01-23T13:20:56.759Z,23.73
2023-01-23T13:23:31.214Z,23.67
2023-01-23T13:26:16.166Z,26.17
2023-01-23T13:29:03.910Z,24.07
2023-01-23T13:31:41.682Z,26.63
2023-01-23T16:05:37.339Z,35.30
2023-01-23T16:08:06.432Z,38.13
2023-01-23T16:10:38.703Z,39.77
2023-01-23T16:13:07.704Z,34.63
2023-01-23T16:15:35.640Z,37.77
2023-01-23T16:18:06.439Z,36.37
2023-01-23T16:20:39.965Z,37.80
2023-01-23T16:23:19.843Z,37.43
2023-01-23T16:25:47.443Z,34.27
2023-01-23T16:28:24.012Z,34.97
2023-01-23T16:30:52.063Z,35.50
2023-01-23T16:33:20.196Z,34.37
2023-01-23T16:35:48.712Z,32.10
2023-01-23T16:38:27.278Z,36.40
2023-01-23T16:40:55.527Z,38.70
2023-01-23T16:43:22.935Z,38.10
2023-01-23T16:45:54.263Z,38.90
2023-01-23T16:48:27.088Z,37.40
2023-01-23T16:50:58.846Z,38.03
2023-01-23T16:53:35.373Z,32.60
2023-01-23T16:56:03.449Z,34.07
2023-01-23T16:58:37.114Z,34.37
2023-01-23T17:01:11.798Z,37.35
2023-01-23T17:03:43.172Z,38.40
2023-01-23T17:06:17.062Z,35.70
2023-01-23T17:08:44.102Z,38.58
2023-01-23T17:11:18.620Z,37.55
2023-01-23T17:13:45.600Z,38.70
2023-01-23T17:16:26.148Z,35.42
2023-01-23T17:18:55.634Z,37.80
2023-01-23T17:21:25.369Z,36.15
2023-01-23T17:23:52.676Z,36.97
2023-01-23T17:26:20.974Z,36.33
2023-01-23T17:28:48.172Z,35.72
2023-01-23T17:31:24.423Z,35.97
2023-01-23T17:33:55.828Z,37.85
2023-01-23T17:36:22.781Z,37.47
2023-01-23T17:38:50.202Z,36.90
2023-01-23T17:41:17.782Z,38.20
2023-01-23T17:43:44.894Z,33.60
2023-01-23T17:46:21.607Z,36.50
2023-01-23T17:48:48.509Z,39.60
2023-01-23T17:51:18.502Z,39.60
2023-01-23T17:53:45.887Z,38.30
2023-01-23T17:56:12.929Z,37.05
2023-01-23T17:58:39.948Z,35.08
2023-01-23T18:01:22.101Z,35.05
2023-01-23T18:03:50.874Z,35.47
2023-01-23T18:06:19.294Z,35.35
2023-01-23T18:08:46.258Z,35.15
2023-01-23T18:11:24.290Z,37.13
2023-01-23T18:14:16.171Z,37.33
2023-01-23T18:16:45.363Z,37.13
2023-01-23T18:19:21.358Z,37.03
2023-01-23T18:21:51.550Z,39.83
2023-01-23T18:24:30.797Z,37.55
2023-01-23T18:27:15.465Z,37.93
2023-01-23T18:30:17.187Z,38.50
2023-01-23T18:33:02.126Z,40.40
2023-01-23T18:35:40.695Z,40.90
2023-01-23T18:38:40.663Z,38.83
2023-01-23T18:41:10.312Z,40.13
2023-01-23T18:43:45.664Z,39.75
2023-01-23T18:46:17.843Z,40.60
2023-01-23T18:48:46.800Z,40.03
2023-01-23T18:51:38.625Z,39.33
2023-01-23T18:54:18.658Z,41.30
2023-01-23T18:56:48.571Z,39.47
2023-01-23T18:59:41.992Z,37.38
2023-01-23T19:02:26.475Z,38.33
2023-01-23T19:05:28.106Z,41.13
2023-01-23T19:07:55.669Z,41.47
2023-01-23T19:10:24.925Z,40.58
2023-01-23T19:13:18.859Z,40.80
2023-01-23T19:15:51.741Z,40.17
2023-01-23T19:18:45.206Z,40.15
2023-01-23T19:21:20.765Z,39.65
2023-01-23T19:24:00.850Z,39.78
2023-01-23T19:26:30.376Z,37.72
2023-01-23T19:28:59.767Z,40.33
2023-01-23T19:31:29.632Z,39.60
2023-01-23T19:33:57.455Z,38.92
2023-01-23T19:36:25.692Z,39.70
2023-01-23T19:38:53.260Z,40.70
2023-01-23T19:41:23.472Z,38.40
2023-01-23T19:43:56.697Z,39.72
2023-01-23T19:46:30.164Z,38.17
2023-01-23T19:48:57.839Z,38.42
2023-01-23T19:51:26.797Z,39.07
2023-01-23T19:53:54.917Z,41.03
2023-01-23T19:56:22.071Z,38.83
2023-01-23T19:58:49.509Z,40.25
2023-01-23T20:01:19.225Z,38.58
2023-01-23T20:03:46.426Z,38.05
2023-01-23T20:06:13.327Z,39.10
2023-01-23T20:08:40.162Z,38.88
2023-01-23T20:11:07.174Z,38.30
2023-01-23T20:13:33.975Z,40.38
2023-01-23T20:16:08.102Z,41.20
2023-01-23T20:18:35.075Z,39.10
2023-01-23T20:21:02.263Z,41.53
2023-01-23T20:23:29.302Z,40.20
2023-01-23T20:26:00.837Z,40.83
2023-01-23T20:28:29.226Z,43.17
2023-01-23T20:30:56.845Z,43.47
2023-01-23T20:33:24.807Z,41.40
2023-01-23T20:35:53.511Z,42.37
2023-01-23T20:38:23.657Z,42.00
2023-01-23T20:40:50.635Z,42.50
2023-01-23T20:43:17.986Z,45.25
2023-01-23T20:45:46.981Z,38.88
2023-01-23T20:48:13.998Z,43.03
2023-01-23T20:50:41.446Z,40.63
2023-01-23T20:53:31.083Z,39.90
2023-01-23T20:56:04.420Z,42.58
2023-01-23T20:58:50.983Z,42.53
2023-01-23T21:01:19.874Z,41.40
2023-01-23T21:03:48.240Z,40.83
2023-01-23T21:06:15.979Z,39.67
2023-01-23T21:08:43.742Z,39.88
2023-01-23T21:11:16.378Z,39.20
2023-01-23T21:13:44.168Z,40.78
2023-01-23T21:16:15.860Z,39.60
2023-01-23T21:18:46.311Z,39.72
2023-01-23T21:21:18.413Z,39.65
2023-01-23T21:23:49.544Z,40.83
2023-01-23T21:26:19.757Z,40.13
2023-01-23T21:28:48.188Z,40.10
2023-01-23T21:31:20.692Z,39.38
2023-01-23T21:33:48.120Z,42.70
2023-01-23T21:36:17.582Z,42.65
2023-01-23T21:38:45.203Z,37.90
2023-01-23T21:41:12.943Z,39.23
2023-01-23T21:43:40.139Z,39.47
2023-01-23T21:46:07.268Z,39.17
2023-01-23T21:48:34.565Z,39.92
2023-01-23T21:51:08.568Z,36.80
2023-01-23T21:53:39.986Z,39.63
2023-01-23T21:56:08.001Z,40.13
2023-01-23T21:58:35.078Z,39.92
2023-01-23T22:01:25.723Z,41.35
2023-01-23T22:03:53.099Z,38.50
2023-01-23T22:06:19.973Z,43.92
2023-01-23T22:08:46.819Z,44.08
2023-01-23T22:11:13.857Z,43.22
2023-01-23T22:13:41.085Z,41.85
2023-01-23T22:16:08.205Z,41.38
2023-01-23T22:18:35.090Z,38.92
2023-01-23T22:21:04.344Z,34.88
2023-01-23T22:23:31.797Z,37.40
2023-01-23T22:26:07.723Z,35.92
2023-01-23T22:28:35.091Z,36.67
2023-01-23T22:31:14.345Z,36.72
2023-01-23T22:33:44.443Z,35.90
2023-01-23T22:36:17.686Z,38.73
2023-01-23T22:38:45.059Z,38.97
2023-01-23T22:41:14.802Z,38.80
2023-01-23T22:43:42.066Z,36.28
2023-01-23T22:46:20.703Z,39.20
2023-01-23T22:48:47.544Z,38.47
2023-01-23T22:51:24.171Z,37.47
2023-01-23T22:53:52.018Z,40.90
2023-01-23T22:56:18.922Z,38.67
2023-01-23T22:58:47.389Z,38.33
2023-01-23T23:01:14.567Z,38.58
2023-01-23T23:03:41.530Z,38.20
2023-01-23T23:06:10.921Z,38.55
2023-01-23T23:08:38.360Z,37.40
2023-01-23T23:11:14.825Z,40.38
2023-01-23T23:13:41.770Z,38.55
2023-01-23T23:16:20.849Z,39.33
2023-01-23T23:18:49.516Z,37.78
2023-01-23T23:21:19.707Z,38.45
2023-01-23T23:23:47.334Z,40.47
2023-01-23T23:26:15.193Z,38.58
2023-01-23T23:28:42.255Z,39.10
2023-01-23T23:31:09.892Z,36.67
2023-01-23T23:33:37.533Z,39.83
2023-01-23T23:36:04.896Z,40.30
2023-01-23T23:38:31.799Z,39.20
2023-01-23T23:41:00.902Z,39.42
2023-01-23T23:43:28.605Z,40.40
2023-01-23T23:48:30.891Z,38.70
2023-01-23T23:51:00.568Z,37.85
2023-01-23T23:53:28.108Z,39.03
2023-01-23T23:55:55.682Z,38.38
2023-01-23T23:58:23.972Z,37.50
